sensor_id;sensor_type;location;lat;lon;timestamp;P1;durP1;ratioP1;P2;durP2;ratioP2
3211;SDS011;1618;47.056;15.472;2024-03-02T00:00:42;15.90;;;15.20;;
3211;SDS011;1618;47.056;15.472;2024-03-02T00:03:11;15.70;;;15.00;;
3211;SDS011;1618;47.056;15.472;2024-03-02T00:05:40;15.60;;;14.90;;
3211;SDS011;1618;47.056;15.472;2024-03-02T00:08:07;15.57;;;14.87;;
3211;SDS011;1618;47.056;15.472;2024-03-02T00:10:36;15.47;;;14.77;;
3211;SDS011;1618;47.056;15.472;2024-03-02T00:13:06;15.73;;;15.03;;
3211;SDS011;1618;47.056;15.472;2024-03-02T00:15:39;15.80;;;15.10;;
3211;SDS011;1618;47.056;15.472;2024-03-02T00:18:08;15.77;;;15.07;;
3211;SDS011;1618;47.056;15.472;2024-03-02T00:20:38;15.40;;;14.70;;
3211;SDS011;1618;47.056;15.472;2024-03-02T00:23:08;15.37;;;14.67;;
3211;SDS011;1618;47.056;15.472;2024-03-02T00:25:37;15.33;;;14.63;;
3211;SDS011;1618;47.056;15.472;2024-03-02T00:28:11;15.50;;;14.80;;
3211;SDS011;1618;47.056;15.472;2024-03-02T00:30:46;15.50;;;14.80;;
3211;SDS011;1618;47.056;15.472;2024-03-02T00:33:21;16.40;;;15.70;;
3211;SDS011;1618;47.056;15.472;2024-03-02T00:35:49;15.40;;;14.70;;
3211;SDS011;1618;47.056;15.472;2024-03-02T00:38:17;15.10;;;14.50;;
3211;SDS011;1618;47.056;15.472;2024-03-02T00:40:47;15.30;;;14.70;;
3211;SDS011;1618;47.056;15.472;2024-03-02T00:45:57;15.73;;;15.03;;
3211;SDS011;1618;47.056;15.472;2024-03-02T00:48:27;16.70;;;15.90;;
3211;SDS011;1618;47.056;15.472;2024-03-02T00:50:57;16.23;;;15.50;;
3211;SDS011;1618;47.056;15.472;2024-03-02T00:53:26;16.67;;;15.87;;
3211;SDS011;1618;47.056;15.472;2024-03-02T00:55:53;16.40;;;15.63;;
3211;SDS011;1618;47.056;15.472;2024-03-02T00:58:21;16.27;;;15.50;;
3211;SDS011;1618;47.056;15.472;2024-03-02T01:00:51;16.50;;;15.77;;
3211;SDS011;1618;47.056;15.472;2024-03-02T01:03:19;16.20;;;15.50;;
3211;SDS011;1618;47.056;15.472;2024-03-02T01:05:51;16.10;;;15.40;;
3211;SDS011;1618;47.056;15.472;2024-03-02T01:08:20;16.87;;;16.07;;
3211;SDS011;1618;47.056;15.472;2024-03-02T01:10:49;16.43;;;15.73;;
3211;SDS011;1618;47.056;15.472;2024-03-02T01:13:18;16.90;;;16.10;;
3211;SDS011;1618;47.056;15.472;2024-03-02T01:15:46;16.80;;;16.00;;
3211;SDS011;1618;47.056;15.472;2024-03-02T01:18:15;16.60;;;15.90;;
3211;SDS011;1618;47.056;15.472;2024-03-02T01:20:44;17.20;;;16.40;;
3211;SDS011;1618;47.056;15.472;2024-03-02T01:23:13;17.80;;;17.00;;
3211;SDS011;1618;47.056;15.472;2024-03-02T01:25:40;17.63;;;16.83;;
3211;SDS011;1618;47.056;15.472;2024-03-02T01:28:07;18.10;;;17.30;;
3211;SDS011;1618;47.056;15.472;2024-03-02T01:30:35;18.40;;;17.50;;
3211;SDS011;1618;47.056;15.472;2024-03-02T01:33:03;18.30;;;17.47;;
3211;SDS011;1618;47.056;15.472;2024-03-02T01:35:32;17.70;;;16.90;;
3211;SDS011;1618;47.056;15.472;2024-03-02T01:38:02;18.00;;;17.20;;
3211;SDS011;1618;47.056;15.472;2024-03-02T01:40:32;17.30;;;16.50;;
3211;SDS011;1618;47.056;15.472;2024-03-02T01:42:59;17.93;;;17.13;;
3211;SDS011;1618;47.056;15.472;2024-03-02T01:45:27;17.67;;;16.87;;
3211;SDS011;1618;47.056;15.472;2024-03-02T01:47:56;17.90;;;17.10;;
3211;SDS011;1618;47.056;15.472;2024-03-02T01:50:26;17.80;;;17.00;;
3211;SDS011;1618;47.056;15.472;2024-03-02T01:52:55;18.17;;;17.37;;
3211;SDS011;1618;47.056;15.472;2024-03-02T01:55:22;18.57;;;17.67;;
3211;SDS011;1618;47.056;15.472;2024-03-02T01:57:52;20.53;;;19.63;;
3211;SDS011;1618;47.056;15.472;2024-03-02T02:00:19;20.30;;;19.40;;
3211;SDS011;1618;47.056;15.472;2024-03-02T02:02:48;19.00;;;18.20;;
3211;SDS011;1618;47.056;15.472;2024-03-02T02:05:16;19.07;;;18.27;;
3211;SDS011;1618;47.056;15.472;2024-03-02T02:07:43;18.97;;;18.17;;
3211;SDS011;1618;47.056;15.472;2024-03-02T02:10:12;18.70;;;17.80;;
3211;SDS011;1618;47.056;15.472;2024-03-02T02:12:39;19.00;;;18.10;;
3211;SDS011;1618;47.056;15.472;2024-03-02T02:18:07;18.00;;;17.20;;
3211;SDS011;1618;47.056;15.472;2024-03-02T02:20:35;18.40;;;17.50;;
3211;SDS011;1618;47.056;15.472;2024-03-02T02:23:04;18.70;;;17.80;;
3211;SDS011;1618;47.056;15.472;2024-03-02T02:25:33;18.83;;;17.93;;
3211;SDS011;1618;47.056;15.472;2024-03-02T02:28:00;17.97;;;17.17;;
3211;SDS011;1618;47.056;15.472;2024-03-02T02:30:28;18.17;;;17.30;;
3211;SDS011;1618;47.056;15.472;2024-03-02T02:32:56;18.97;;;18.07;;
3211;SDS011;1618;47.056;15.472;2024-03-02T02:35:24;17.90;;;17.10;;
3211;SDS011;1618;47.056;15.472;2024-03-02T02:37:53;17.80;;;17.00;;
3211;SDS011;1618;47.056;15.472;2024-03-02T02:40:21;18.00;;;17.20;;
3211;SDS011;1618;47.056;15.472;2024-03-02T02:42:50;18.20;;;17.40;;
3211;SDS011;1618;47.056;15.472;2024-03-02T02:45:18;17.90;;;17.10;;
3211;SDS011;1618;47.056;15.472;2024-03-02T02:47:47;18.43;;;17.57;;
3211;SDS011;1618;47.056;15.472;2024-03-02T02:50:15;18.40;;;17.53;;
3211;SDS011;1618;47.056;15.472;2024-03-02T02:52:48;17.67;;;16.87;;
3211;SDS011;1618;47.056;15.472;2024-03-02T02:55:17;17.83;;;17.03;;
3211;SDS011;1618;47.056;15.472;2024-03-02T02:57:45;18.20;;;17.30;;
3211;SDS011;1618;47.056;15.472;2024-03-02T03:00:13;17.97;;;17.17;;
3211;SDS011;1618;47.056;15.472;2024-03-02T03:02:42;18.77;;;17.87;;
3211;SDS011;1618;47.056;15.472;2024-03-02T03:05:10;18.93;;;18.03;;
3211;SDS011;1618;47.056;15.472;2024-03-02T03:07:39;18.50;;;17.60;;
3211;SDS011;1618;47.056;15.472;2024-03-02T03:10:07;18.07;;;17.27;;
3211;SDS011;1618;47.056;15.472;2024-03-02T03:12:39;17.87;;;17.07;;
3211;SDS011;1618;47.056;15.472;2024-03-02T03:15:12;18.03;;;17.23;;
3211;SDS011;1618;47.056;15.472;2024-03-02T03:17:41;17.97;;;17.17;;
3211;SDS011;1618;47.056;15.472;2024-03-02T03:20:09;17.20;;;16.40;;
3211;SDS011;1618;47.056;15.472;2024-03-02T03:22:37;17.60;;;16.80;;
3211;SDS011;1618;47.056;15.472;2024-03-02T03:25:05;17.30;;;16.60;;
3211;SDS011;1618;47.056;15.472;2024-03-02T03:27:33;17.57;;;16.77;;
3211;SDS011;1618;47.056;15.472;2024-03-02T03:30:00;17.40;;;16.70;;
3211;SDS011;1618;47.056;15.472;2024-03-02T03:32:29;18.03;;;17.23;;
3211;SDS011;1618;47.056;15.472;2024-03-02T03:34:57;17.83;;;17.03;;
3211;SDS011;1618;47.056;15.472;2024-03-02T03:37:26;17.83;;;17.03;;
3211;SDS011;1618;47.056;15.472;2024-03-02T03:39:58;18.43;;;17.57;;
3211;SDS011;1618;47.056;15.472;2024-03-02T03:42:26;17.80;;;17.00;;
3211;SDS011;1618;47.056;15.472;2024-03-02T03:44:53;18.33;;;17.53;;
3211;SDS011;1618;47.056;15.472;2024-03-02T03:47:21;18.03;;;17.23;;
3211;SDS011;1618;47.056;15.472;2024-03-02T03:49:50;18.10;;;17.30;;
3211;SDS011;1618;47.056;15.472;2024-03-02T03:52:18;18.07;;;17.27;;
3211;SDS011;1618;47.056;15.472;2024-03-02T03:54:46;18.00;;;17.20;;
3211;SDS011;1618;47.056;15.472;2024-03-02T03:57:14;18.03;;;17.23;;
3211;SDS011;1618;47.056;15.472;2024-03-02T03:59:41;17.90;;;17.10;;
3211;SDS011;1618;47.056;15.472;2024-03-02T04:02:12;17.20;;;16.40;;
3211;SDS011;1618;47.056;15.472;2024-03-02T04:04:41;17.77;;;16.97;;
3211;SDS011;1618;47.056;15.472;2024-03-02T04:07:10;18.07;;;17.27;;
3211;SDS011;1618;47.056;15.472;2024-03-02T04:09:37;18.30;;;17.40;;
3211;SDS011;1618;47.056;15.472;2024-03-02T04:12:06;19.33;;;18.43;;
3211;SDS011;1618;47.056;15.472;2024-03-02T04:14:33;19.20;;;18.30;;
3211;SDS011;1618;47.056;15.472;2024-03-02T04:17:00;18.57;;;17.67;;
3211;SDS011;1618;47.056;15.472;2024-03-02T04:19:28;18.57;;;17.67;;
3211;SDS011;1618;47.056;15.472;2024-03-02T04:22:02;17.80;;;17.00;;
3211;SDS011;1618;47.056;15.472;2024-03-02T04:24:35;17.67;;;16.87;;
3211;SDS011;1618;47.056;15.472;2024-03-02T04:27:09;17.50;;;16.70;;
3211;SDS011;1618;47.056;15.472;2024-03-02T04:29:41;17.40;;;16.60;;
3211;SDS011;1618;47.056;15.472;2024-03-02T04:32:10;16.87;;;16.07;;
3211;SDS011;1618;47.056;15.472;2024-03-02T04:34:39;17.00;;;16.20;;
3211;SDS011;1618;47.056;15.472;2024-03-02T04:37:06;17.53;;;16.73;;
3211;SDS011;1618;47.056;15.472;2024-03-02T04:39:36;17.13;;;16.33;;
3211;SDS011;1618;47.056;15.472;2024-03-02T04:42:05;16.87;;;16.07;;
3211;SDS011;1618;47.056;15.472;2024-03-02T04:44:35;16.73;;;15.93;;
3211;SDS011;1618;47.056;15.472;2024-03-02T04:47:04;16.03;;;15.33;;
3211;SDS011;1618;47.056;15.472;2024-03-02T04:49:31;17.07;;;16.37;;
3211;SDS011;1618;47.056;15.472;2024-03-02T04:52:00;17.30;;;16.50;;
3211;SDS011;1618;47.056;15.472;2024-03-02T04:54:27;17.90;;;17.10;;
3211;SDS011;1618;47.056;15.472;2024-03-02T04:56:57;18.83;;;17.93;;
3211;SDS011;1618;47.056;15.472;2024-03-02T04:59:26;18.87;;;17.97;;
3211;SDS011;1618;47.056;15.472;2024-03-02T05:01:54;18.80;;;17.90;;
3211;SDS011;1618;47.056;15.472;2024-03-02T05:04:22;18.60;;;17.70;;
3211;SDS011;1618;47.056;15.472;2024-03-02T05:06:51;18.30;;;17.50;;
3211;SDS011;1618;47.056;15.472;2024-03-02T05:09:21;18.60;;;17.70;;
3211;SDS011;1618;47.056;15.472;2024-03-02T05:11:48;17.70;;;16.90;;
3211;SDS011;1618;47.056;15.472;2024-03-02T05:14:35;17.57;;;16.77;;
3211;SDS011;1618;47.056;15.472;2024-03-02T05:17:02;17.30;;;16.50;;
3211;SDS011;1618;47.056;15.472;2024-03-02T05:19:30;18.00;;;17.20;;
3211;SDS011;1618;47.056;15.472;2024-03-02T05:21:59;17.10;;;16.30;;
3211;SDS011;1618;47.056;15.472;2024-03-02T05:24:28;16.83;;;16.03;;
3211;SDS011;1618;47.056;15.472;2024-03-02T05:26:56;17.20;;;16.50;;
3211;SDS011;1618;47.056;15.472;2024-03-02T05:29:24;21.37;;;20.47;;
3211;SDS011;1618;47.056;15.472;2024-03-02T05:31:55;20.97;;;20.07;;
3211;SDS011;1618;47.056;15.472;2024-03-02T05:34:22;20.47;;;19.57;;
3211;SDS011;1618;47.056;15.472;2024-03-02T05:36:50;19.07;;;18.27;;
3211;SDS011;1618;47.056;15.472;2024-03-02T05:39:17;20.23;;;19.33;;
3211;SDS011;1618;47.056;15.472;2024-03-02T05:41:44;20.37;;;19.47;;
3211;SDS011;1618;47.056;15.472;2024-03-02T05:44:11;19.30;;;18.50;;
3211;SDS011;1618;47.056;15.472;2024-03-02T05:46:43;20.00;;;19.10;;
3211;SDS011;1618;47.056;15.472;2024-03-02T05:49:12;18.20;;;17.40;;
3211;SDS011;1618;47.056;15.472;2024-03-02T05:51:39;19.00;;;18.20;;
3211;SDS011;1618;47.056;15.472;2024-03-02T05:54:10;19.00;;;18.20;;
3211;SDS011;1618;47.056;15.472;2024-03-02T05:56:37;20.40;;;19.50;;
3211;SDS011;1618;47.056;15.472;2024-03-02T05:59:05;20.30;;;19.40;;
3211;SDS011;1618;47.056;15.472;2024-03-02T06:01:38;18.37;;;17.57;;
3211;SDS011;1618;47.056;15.472;2024-03-02T06:04:07;17.23;;;16.53;;
3211;SDS011;1618;47.056;15.472;2024-03-02T06:06:35;18.00;;;17.20;;
3211;SDS011;1618;47.056;15.472;2024-03-02T06:09:03;18.80;;;18.00;;
3211;SDS011;1618;47.056;15.472;2024-03-02T06:11:33;19.10;;;18.30;;
3211;SDS011;1618;47.056;15.472;2024-03-02T06:14:01;19.93;;;19.03;;
3211;SDS011;1618;47.056;15.472;2024-03-02T06:16:28;19.50;;;18.70;;
3211;SDS011;1618;47.056;15.472;2024-03-02T06:18:57;20.33;;;19.43;;
3211;SDS011;1618;47.056;15.472;2024-03-02T06:21:25;19.70;;;18.87;;
3211;SDS011;1618;47.056;15.472;2024-03-02T06:23:55;19.80;;;18.90;;
3211;SDS011;1618;47.056;15.472;2024-03-02T06:26:23;19.20;;;18.40;;
3211;SDS011;1618;47.056;15.472;2024-03-02T06:28:51;18.80;;;18.00;;
3211;SDS011;1618;47.056;15.472;2024-03-02T06:31:19;19.37;;;18.47;;
3211;SDS011;1618;47.056;15.472;2024-03-02T06:33:47;19.70;;;18.80;;
3211;SDS011;1618;47.056;15.472;2024-03-02T06:36:15;19.90;;;19.00;;
3211;SDS011;1618;47.056;15.472;2024-03-02T06:38:43;19.13;;;18.23;;
3211;SDS011;1618;47.056;15.472;2024-03-02T06:41:11;18.10;;;17.30;;
3211;SDS011;1618;47.056;15.472;2024-03-02T06:43:40;17.87;;;17.07;;
3211;SDS011;1618;47.056;15.472;2024-03-02T06:46:07;17.70;;;16.90;;
3211;SDS011;1618;47.056;15.472;2024-03-02T06:48:34;18.50;;;17.70;;
3211;SDS011;1618;47.056;15.472;2024-03-02T06:51:04;19.00;;;18.20;;
3211;SDS011;1618;47.056;15.472;2024-03-02T06:53:36;19.10;;;18.30;;
3211;SDS011;1618;47.056;15.472;2024-03-02T06:56:07;19.00;;;18.20;;
3211;SDS011;1618;47.056;15.472;2024-03-02T06:58:42;19.37;;;18.53;;
3211;SDS011;1618;47.056;15.472;2024-03-02T07:01:17;19.73;;;18.83;;
3211;SDS011;1618;47.056;15.472;2024-03-02T07:03:54;19.63;;;18.73;;
3211;SDS011;1618;47.056;15.472;2024-03-02T07:06:23;19.00;;;18.20;;
3211;SDS011;1618;47.056;15.472;2024-03-02T07:09:00;19.27;;;18.40;;
3211;SDS011;1618;47.056;15.472;2024-03-02T07:11:31;19.10;;;18.30;;
3211;SDS011;1618;47.056;15.472;2024-03-02T07:14:01;18.50;;;17.70;;
3211;SDS011;1618;47.056;15.472;2024-03-02T07:16:28;19.07;;;18.17;;
3211;SDS011;1618;47.056;15.472;2024-03-02T07:18:58;19.37;;;18.47;;
3211;SDS011;1618;47.056;15.472;2024-03-02T07:21:27;20.07;;;19.17;;
3211;SDS011;1618;47.056;15.472;2024-03-02T07:23:55;20.13;;;19.23;;
3211;SDS011;1618;47.056;15.472;2024-03-02T07:26:24;20.60;;;19.70;;
3211;SDS011;1618;47.056;15.472;2024-03-02T07:28:51;21.33;;;20.33;;
3211;SDS011;1618;47.056;15.472;2024-03-02T07:31:21;21.27;;;20.27;;
3211;SDS011;1618;47.056;15.472;2024-03-02T07:33:49;22.60;;;21.50;;
3211;SDS011;1618;47.056;15.472;2024-03-02T07:36:16;23.23;;;22.13;;
3211;SDS011;1618;47.056;15.472;2024-03-02T07:38:44;23.13;;;22.03;;
3211;SDS011;1618;47.056;15.472;2024-03-02T07:41:15;24.20;;;23.00;;
3211;SDS011;1618;47.056;15.472;2024-03-02T07:43:42;24.90;;;23.70;;
3211;SDS011;1618;47.056;15.472;2024-03-02T07:46:10;26.03;;;24.73;;
3211;SDS011;1618;47.056;15.472;2024-03-02T07:48:39;26.13;;;24.83;;
3211;SDS011;1618;47.056;15.472;2024-03-02T07:51:07;27.07;;;25.67;;
3211;SDS011;1618;47.056;15.472;2024-03-02T07:53:35;26.63;;;25.33;;
3211;SDS011;1618;47.056;15.472;2024-03-02T07:56:02;25.90;;;24.60;;
3211;SDS011;1618;47.056;15.472;2024-03-02T07:58:32;26.53;;;25.20;;
3211;SDS011;1618;47.056;15.472;2024-03-02T08:01:01;27.00;;;25.60;;
3211;SDS011;1618;47.056;15.472;2024-03-02T08:03:29;27.43;;;26.03;;
3211;SDS011;1618;47.056;15.472;2024-03-02T08:06:00;26.97;;;25.53;;
3211;SDS011;1618;47.056;15.472;2024-03-02T08:08:28;28.60;;;27.10;;
3211;SDS011;1618;47.056;15.472;2024-03-02T08:11:01;27.90;;;26.40;;
3211;SDS011;1618;47.056;15.472;2024-03-02T08:13:29;26.70;;;25.20;;
3211;SDS011;1618;47.056;15.472;2024-03-02T08:15:56;27.00;;;25.50;;
3211;SDS011;1618;47.056;15.472;2024-03-02T08:18:24;26.73;;;25.23;;
3211;SDS011;1618;47.056;15.472;2024-03-02T08:20:53;27.50;;;26.00;;
3211;SDS011;1618;47.056;15.472;2024-03-02T08:23:21;27.07;;;25.57;;
3211;SDS011;1618;47.056;15.472;2024-03-02T08:25:50;26.77;;;25.27;;
3211;SDS011;1618;47.056;15.472;2024-03-02T08:28:18;26.50;;;25.10;;
3211;SDS011;1618;47.056;15.472;2024-03-02T08:30:45;25.70;;;24.30;;
3211;SDS011;1618;47.056;15.472;2024-03-02T08:33:12;26.27;;;24.87;;
3211;SDS011;1618;47.056;15.472;2024-03-02T08:35:41;31.00;;;29.33;;
3211;SDS011;1618;47.056;15.472;2024-03-02T08:38:09;25.93;;;24.63;;
3211;SDS011;1618;47.056;15.472;2024-03-02T08:40:38;28.60;;;27.10;;
3211;SDS011;1618;47.056;15.472;2024-03-02T08:43:10;28.90;;;27.30;;
3211;SDS011;1618;47.056;15.472;2024-03-02T08:45:38;28.50;;;26.90;;
3211;SDS011;1618;47.056;15.472;2024-03-02T08:48:07;25.20;;;23.80;;
3211;SDS011;1618;47.056;15.472;2024-03-02T08:50:35;28.23;;;26.63;;
3211;SDS011;1618;47.056;15.472;2024-03-02T08:53:03;29.80;;;28.10;;
3211;SDS011;1618;47.056;15.472;2024-03-02T08:55:31;29.70;;;28.00;;
3211;SDS011;1618;47.056;15.472;2024-03-02T08:58:00;29.67;;;27.97;;
3211;SDS011;1618;47.056;15.472;2024-03-02T09:00:29;29.60;;;27.90;;
3211;SDS011;1618;47.056;15.472;2024-03-02T09:02:57;29.67;;;28.00;;
3211;SDS011;1618;47.056;15.472;2024-03-02T09:05:24;29.73;;;28.03;;
3211;SDS011;1618;47.056;15.472;2024-03-02T09:07:51;30.47;;;28.77;;
3211;SDS011;1618;47.056;15.472;2024-03-02T09:10:19;30.47;;;28.70;;
3211;SDS011;1618;47.056;15.472;2024-03-02T09:12:49;29.77;;;28.07;;
3211;SDS011;1618;47.056;15.472;2024-03-02T09:15:19;29.97;;;28.17;;
3211;SDS011;1618;47.056;15.472;2024-03-02T09:17:46;29.10;;;27.50;;
3211;SDS011;1618;47.056;15.472;2024-03-02T09:20:14;29.13;;;27.43;;
3211;SDS011;1618;47.056;15.472;2024-03-02T09:22:42;31.07;;;29.27;;
3211;SDS011;1618;47.056;15.472;2024-03-02T09:25:10;30.90;;;29.00;;
3211;SDS011;1618;47.056;15.472;2024-03-02T09:27:39;31.57;;;29.67;;
3211;SDS011;1618;47.056;15.472;2024-03-02T09:30:12;31.10;;;29.20;;
3211;SDS011;1618;47.056;15.472;2024-03-02T09:32:46;30.83;;;28.93;;
3211;SDS011;1618;47.056;15.472;2024-03-02T09:35:14;30.10;;;28.27;;
3211;SDS011;1618;47.056;15.472;2024-03-02T09:37:42;29.80;;;28.00;;
3211;SDS011;1618;47.056;15.472;2024-03-02T09:40:10;29.50;;;27.60;;
3211;SDS011;1618;47.056;15.472;2024-03-02T09:42:38;29.97;;;27.97;;
3211;SDS011;1618;47.056;15.472;2024-03-02T09:45:06;30.57;;;28.57;;
3211;SDS011;1618;47.056;15.472;2024-03-02T09:47:33;30.40;;;28.40;;
3211;SDS011;1618;47.056;15.472;2024-03-02T09:50:03;30.60;;;28.60;;
3211;SDS011;1618;47.056;15.472;2024-03-02T09:52:31;30.40;;;28.50;;
3211;SDS011;1618;47.056;15.472;2024-03-02T09:55:00;29.27;;;27.27;;
3211;SDS011;1618;47.056;15.472;2024-03-02T09:57:28;29.87;;;27.87;;
3211;SDS011;1618;47.056;15.472;2024-03-02T09:59:56;29.80;;;27.80;;
3211;SDS011;1618;47.056;15.472;2024-03-02T10:02:24;30.20;;;28.10;;
3211;SDS011;1618;47.056;15.472;2024-03-02T10:04:52;29.90;;;27.80;;
3211;SDS011;1618;47.056;15.472;2024-03-02T10:07:22;30.20;;;28.20;;
3211;SDS011;1618;47.056;15.472;2024-03-02T10:09:50;30.00;;;27.90;;
3211;SDS011;1618;47.056;15.472;2024-03-02T10:12:18;30.83;;;28.63;;
3211;SDS011;1618;47.056;15.472;2024-03-02T10:14:46;30.13;;;28.00;;
3211;SDS011;1618;47.056;15.472;2024-03-02T10:17:17;29.80;;;27.70;;
3211;SDS011;1618;47.056;15.472;2024-03-02T10:19:45;30.90;;;28.80;;
3211;SDS011;1618;47.056;15.472;2024-03-02T10:22:15;30.00;;;27.90;;
3211;SDS011;1618;47.056;15.472;2024-03-02T10:24:45;29.00;;;26.90;;
3211;SDS011;1618;47.056;15.472;2024-03-02T10:27:15;28.67;;;26.57;;
3211;SDS011;1618;47.056;15.472;2024-03-02T10:29:42;31.50;;;29.10;;
3211;SDS011;1618;47.056;15.472;2024-03-02T10:32:11;31.83;;;29.43;;
3211;SDS011;1618;47.056;15.472;2024-03-02T10:34:39;32.40;;;30.00;;
3211;SDS011;1618;47.056;15.472;2024-03-02T10:37:08;33.37;;;30.97;;
3211;SDS011;1618;47.056;15.472;2024-03-02T10:39:35;34.40;;;31.90;;
3211;SDS011;1618;47.056;15.472;2024-03-02T10:42:06;33.57;;;30.87;;
3211;SDS011;1618;47.056;15.472;2024-03-02T10:44:35;35.77;;;32.87;;
3211;SDS011;1618;47.056;15.472;2024-03-02T10:47:03;34.80;;;31.90;;
3211;SDS011;1618;47.056;15.472;2024-03-02T10:49:31;34.30;;;31.30;;
3211;SDS011;1618;47.056;15.472;2024-03-02T10:51:59;34.70;;;31.70;;
3211;SDS011;1618;47.056;15.472;2024-03-02T10:54:27;34.30;;;31.30;;
3211;SDS011;1618;47.056;15.472;2024-03-02T10:57:02;34.73;;;31.80;;
3211;SDS011;1618;47.056;15.472;2024-03-02T10:59:33;34.80;;;31.80;;
3211;SDS011;1618;47.056;15.472;2024-03-02T11:02:03;34.40;;;31.40;;
3211;SDS011;1618;47.056;15.472;2024-03-02T11:04:34;35.03;;;32.03;;
3211;SDS011;1618;47.056;15.472;2024-03-02T11:07:02;33.63;;;30.70;;
3211;SDS011;1618;47.056;15.472;2024-03-02T11:09:33;34.80;;;31.90;;
3211;SDS011;1618;47.056;15.472;2024-03-02T11:12:02;36.90;;;34.00;;
3211;SDS011;1618;47.056;15.472;2024-03-02T11:14:30;35.33;;;32.33;;
3211;SDS011;1618;47.056;15.472;2024-03-02T11:17:01;37.47;;;34.47;;
3211;SDS011;1618;47.056;15.472;2024-03-02T11:19:30;37.07;;;34.07;;
3211;SDS011;1618;47.056;15.472;2024-03-02T11:22:00;36.70;;;33.60;;
3211;SDS011;1618;47.056;15.472;2024-03-02T11:24:31;35.60;;;32.50;;
3211;SDS011;1618;47.056;15.472;2024-03-02T11:26:58;36.40;;;33.30;;
3211;SDS011;1618;47.056;15.472;2024-03-02T11:29:44;36.50;;;33.40;;
3211;SDS011;1618;47.056;15.472;2024-03-02T11:32:17;35.93;;;32.83;;
3211;SDS011;1618;47.056;15.472;2024-03-02T11:34:48;35.40;;;32.40;;
3211;SDS011;1618;47.056;15.472;2024-03-02T11:37:16;35.80;;;32.80;;
3211;SDS011;1618;47.056;15.472;2024-03-02T11:39:46;35.60;;;32.60;;
3211;SDS011;1618;47.056;15.472;2024-03-02T11:42:14;36.73;;;33.63;;
3211;SDS011;1618;47.056;15.472;2024-03-02T11:44:44;37.50;;;34.70;;
3211;SDS011;1618;47.056;15.472;2024-03-02T11:47:12;36.97;;;34.07;;
3211;SDS011;1618;47.056;15.472;2024-03-02T11:49:42;39.50;;;36.60;;
3211;SDS011;1618;47.056;15.472;2024-03-02T11:52:10;39.30;;;36.30;;
3211;SDS011;1618;47.056;15.472;2024-03-02T11:54:39;39.43;;;36.53;;
3211;SDS011;1618;47.056;15.472;2024-03-02T11:57:14;37.37;;;34.47;;
3211;SDS011;1618;47.056;15.472;2024-03-02T11:59:41;38.10;;;35.10;;
3211;SDS011;1618;47.056;15.472;2024-03-02T12:02:19;39.00;;;36.10;;
3211;SDS011;1618;47.056;15.472;2024-03-02T12:04:49;37.43;;;34.53;;
3211;SDS011;1618;47.056;15.472;2024-03-02T12:07:19;38.83;;;35.93;;
3211;SDS011;1618;47.056;15.472;2024-03-02T12:09:47;41.30;;;38.33;;
3211;SDS011;1618;47.056;15.472;2024-03-02T12:12:15;41.10;;;38.10;;
3211;SDS011;1618;47.056;15.472;2024-03-02T12:14:49;39.80;;;36.80;;
3211;SDS011;1618;47.056;15.472;2024-03-02T12:17:19;40.10;;;37.10;;
3211;SDS011;1618;47.056;15.472;2024-03-02T12:19:46;40.47;;;37.57;;
3211;SDS011;1618;47.056;15.472;2024-03-02T12:22:20;39.77;;;36.87;;
3211;SDS011;1618;47.056;15.472;2024-03-02T12:24:50;37.93;;;35.03;;
3211;SDS011;1618;47.056;15.472;2024-03-02T12:27:18;38.23;;;35.33;;
3211;SDS011;1618;47.056;15.472;2024-03-02T12:29:47;39.50;;;36.50;;
3211;SDS011;1618;47.056;15.472;2024-03-02T12:32:15;36.90;;;34.00;;
3211;SDS011;1618;47.056;15.472;2024-03-02T12:34:46;37.73;;;34.83;;
3211;SDS011;1618;47.056;15.472;2024-03-02T12:37:13;37.17;;;34.37;;
3211;SDS011;1618;47.056;15.472;2024-03-02T12:39:45;36.60;;;33.90;;
3211;SDS011;1618;47.056;15.472;2024-03-02T12:42:14;38.60;;;35.80;;
3211;SDS011;1618;47.056;15.472;2024-03-02T12:44:41;38.30;;;35.50;;
3211;SDS011;1618;47.056;15.472;2024-03-02T12:47:08;38.97;;;36.17;;
3211;SDS011;1618;47.056;15.472;2024-03-02T12:49:37;41.23;;;38.43;;
3211;SDS011;1618;47.056;15.472;2024-03-02T12:52:06;41.70;;;38.90;;
3211;SDS011;1618;47.056;15.472;2024-03-02T12:54:34;39.20;;;36.30;;
3211;SDS011;1618;47.056;15.472;2024-03-02T12:57:04;38.83;;;35.93;;
3211;SDS011;1618;47.056;15.472;2024-03-02T12:59:33;39.50;;;36.50;;
3211;SDS011;1618;47.056;15.472;2024-03-02T13:02:01;39.37;;;36.37;;
3211;SDS011;1618;47.056;15.472;2024-03-02T13:04:30;38.57;;;35.63;;
3211;SDS011;1618;47.056;15.472;2024-03-02T13:06:59;38.13;;;35.13;;
3211;SDS011;1618;47.056;15.472;2024-03-02T13:09:27;37.97;;;34.97;;
3211;SDS011;1618;47.056;15.472;2024-03-02T13:11:55;36.40;;;33.50;;
3211;SDS011;1618;47.056;15.472;2024-03-02T13:14:35;39.30;;;36.40;;
3211;SDS011;1618;47.056;15.472;2024-03-02T13:17:02;39.40;;;36.60;;
3211;SDS011;1618;47.056;15.472;2024-03-02T13:19:31;39.50;;;36.60;;
3211;SDS011;1618;47.056;15.472;2024-03-02T13:22:00;38.80;;;35.80;;
3211;SDS011;1618;47.056;15.472;2024-03-02T13:24:28;38.33;;;35.40;;
3211;SDS011;1618;47.056;15.472;2024-03-02T13:27:01;39.13;;;36.23;;
3211;SDS011;1618;47.056;15.472;2024-03-02T13:29:29;38.70;;;35.80;;
3211;SDS011;1618;47.056;15.472;2024-03-02T13:31:58;37.60;;;34.70;;
3211;SDS011;1618;47.056;15.472;2024-03-02T13:34:26;38.10;;;35.20;;
3211;SDS011;1618;47.056;15.472;2024-03-02T13:36:53;37.80;;;34.90;;
3211;SDS011;1618;47.056;15.472;2024-03-02T13:39:20;36.73;;;33.93;;
3211;SDS011;1618;47.056;15.472;2024-03-02T13:41:48;37.70;;;34.90;;
3211;SDS011;1618;47.056;15.472;2024-03-02T13:44:22;36.93;;;34.23;;
3211;SDS011;1618;47.056;15.472;2024-03-02T13:46:51;33.67;;;30.98;;
3211;SDS011;1618;47.056;15.472;2024-03-02T13:49:20;36.50;;;33.70;;
3211;SDS011;1618;47.056;15.472;2024-03-02T13:51:48;37.43;;;34.63;;
3211;SDS011;1618;47.056;15.472;2024-03-02T13:54:22;37.43;;;34.70;;
3211;SDS011;1618;47.056;15.472;2024-03-02T13:56:50;36.73;;;33.93;;
3211;SDS011;1618;47.056;15.472;2024-03-02T13:59:17;36.97;;;34.17;;
3211;SDS011;1618;47.056;15.472;2024-03-02T14:01:47;35.70;;;33.00;;
3211;SDS011;1618;47.056;15.472;2024-03-02T14:04:15;35.60;;;32.90;;
3211;SDS011;1618;47.056;15.472;2024-03-02T14:06:45;35.07;;;32.33;;
3211;SDS011;1618;47.056;15.472;2024-03-02T14:09:12;35.07;;;32.37;;
3211;SDS011;1618;47.056;15.472;2024-03-02T14:11:40;34.63;;;32.03;;
3211;SDS011;1618;47.056;15.472;2024-03-02T14:14:10;35.30;;;32.70;;
3211;SDS011;1618;47.056;15.472;2024-03-02T14:16:37;32.80;;;30.10;;
3211;SDS011;1618;47.056;15.472;2024-03-02T14:19:05;33.27;;;30.67;;
3211;SDS011;1618;47.056;15.472;2024-03-02T14:21:32;32.80;;;30.20;;
3211;SDS011;1618;47.056;15.472;2024-03-02T14:24:02;32.67;;;30.07;;
3211;SDS011;1618;47.056;15.472;2024-03-02T14:26:29;32.33;;;29.73;;
3211;SDS011;1618;47.056;15.472;2024-03-02T14:29:00;32.87;;;30.27;;
3211;SDS011;1618;47.056;15.472;2024-03-02T14:31:29;33.60;;;31.00;;
3211;SDS011;1618;47.056;15.472;2024-03-02T14:33:57;32.97;;;30.37;;
3211;SDS011;1618;47.056;15.472;2024-03-02T14:36:25;33.60;;;31.10;;
3211;SDS011;1618;47.056;15.472;2024-03-02T14:38:53;32.97;;;30.47;;
3211;SDS011;1618;47.056;15.472;2024-03-02T14:41:22;32.60;;;30.10;;
3211;SDS011;1618;47.056;15.472;2024-03-02T14:43:51;33.30;;;30.80;;
3211;SDS011;1618;47.056;15.472;2024-03-02T14:46:18;32.23;;;29.73;;
3211;SDS011;1618;47.056;15.472;2024-03-02T14:48:47;34.33;;;31.73;;